sensor_id;sensor_type;location;lat;lon;timestamp;P1;durP1;ratioP1;P2;durP2;ratioP2
14890;SDS011;7537;48.014;11.590;2022-09-09T00:02:59;1.05;;;1.06;;
14890;SDS011;7537;48.014;11.590;2022-09-09T00:08:31;2.01;;;1.29;;
14890;SDS011;7537;48.014;11.590;2022-09-09T00:14:00;1.09;;;1.14;;
14890;SDS011;7537;48.014;11.590;2022-09-09T00:19:35;3.17;;;1.32;;
14890;SDS011;7537;48.014;11.590;2022-09-09T00:25:08;1.13;;;1.26;;
14890;SDS011;7537;48.014;11.590;2022-09-09T00:30:38;1.12;;;1.23;;
14890;SDS011;7537;48.014;11.590;2022-09-09T00:36:09;2.55;;;1.24;;
14890;SDS011;7537;48.014;11.590;2022-09-09T00:41:44;6.58;;;2.72;;
14890;SDS011;7537;48.014;11.590;2022-09-09T00:47:19;1.56;;;1.53;;
14890;SDS011;7537;48.014;11.590;2022-09-09T00:52:54;7.35;;;2.17;;
14890;SDS011;7537;48.014;11.590;2022-09-09T00:58:24;3.24;;;1.41;;
14890;SDS011;7537;48.014;11.590;2022-09-09T01:03:52;0.96;;;1.05;;
14890;SDS011;7537;48.014;11.590;2022-09-09T01:09:21;2.82;;;1.55;;
14890;SDS011;7537;48.014;11.590;2022-09-09T01:14:50;1.81;;;1.30;;
14890;SDS011;7537;48.014;11.590;2022-09-09T01:20:19;1.34;;;1.15;;
14890;SDS011;7537;48.014;11.590;2022-09-09T01:31:36;1.06;;;1.08;;
14890;SDS011;7537;48.014;11.590;2022-09-09T01:37:04;2.81;;;1.31;;
14890;SDS011;7537;48.014;11.590;2022-09-09T01:42:32;1.39;;;1.41;;
14890;SDS011;7537;48.014;11.590;2022-09-09T01:48:00;1.14;;;1.26;;
14890;SDS011;7537;48.014;11.590;2022-09-09T01:53:31;2.77;;;1.55;;
14890;SDS011;7537;48.014;11.590;2022-09-09T01:59:03;1.78;;;1.78;;
14890;SDS011;7537;48.014;11.590;2022-09-09T02:04:37;1.19;;;1.18;;
14890;SDS011;7537;48.014;11.590;2022-09-09T02:10:09;1.22;;;1.28;;
14890;SDS011;7537;48.014;11.590;2022-09-09T02:15:38;2.37;;;1.22;;
14890;SDS011;7537;48.014;11.590;2022-09-09T02:21:09;1.30;;;1.02;;
14890;SDS011;7537;48.014;11.590;2022-09-09T02:26:39;1.82;;;1.42;;
14890;SDS011;7537;48.014;11.590;2022-09-09T02:32:08;1.32;;;1.39;;
14890;SDS011;7537;48.014;11.590;2022-09-09T02:37:38;1.32;;;1.40;;
14890;SDS011;7537;48.014;11.590;2022-09-09T02:43:06;3.24;;;1.28;;
14890;SDS011;7537;48.014;11.590;2022-09-09T02:48:34;3.22;;;1.52;;
14890;SDS011;7537;48.014;11.590;2022-09-09T02:54:09;3.21;;;1.07;;
14890;SDS011;7537;48.014;11.590;2022-09-09T02:59:37;1.17;;;1.19;;
14890;SDS011;7537;48.014;11.590;2022-09-09T03:05:07;2.31;;;1.28;;
14890;SDS011;7537;48.014;11.590;2022-09-09T03:10:35;2.35;;;1.62;;
14890;SDS011;7537;48.014;11.590;2022-09-09T03:16:03;1.17;;;1.26;;
14890;SDS011;7537;48.014;11.590;2022-09-09T03:21:30;1.33;;;1.12;;
14890;SDS011;7537;48.014;11.590;2022-09-09T03:26:58;1.17;;;0.82;;
14890;SDS011;7537;48.014;11.590;2022-09-09T03:32:25;1.29;;;1.36;;
14890;SDS011;7537;48.014;11.590;2022-09-09T03:37:54;1.42;;;1.62;;
14890;SDS011;7537;48.014;11.590;2022-09-09T03:43:22;1.72;;;1.11;;
14890;SDS011;7537;48.014;11.590;2022-09-09T03:48:49;2.26;;;1.48;;
14890;SDS011;7537;48.014;11.590;2022-09-09T03:54:20;1.73;;;1.47;;
14890;SDS011;7537;48.014;11.590;2022-09-09T03:59:47;2.01;;;1.20;;
14890;SDS011;7537;48.014;11.590;2022-09-09T04:05:15;1.42;;;1.54;;
14890;SDS011;7537;48.014;11.590;2022-09-09T04:10:45;1.28;;;1.26;;
14890;SDS011;7537;48.014;11.590;2022-09-09T04:16:12;1.97;;;1.41;;
14890;SDS011;7537;48.014;11.590;2022-09-09T04:21:40;3.26;;;1.23;;
14890;SDS011;7537;48.014;11.590;2022-09-09T04:27:07;1.28;;;1.36;;
14890;SDS011;7537;48.014;11.590;2022-09-09T04:32:34;3.19;;;1.27;;
14890;SDS011;7537;48.014;11.590;2022-09-09T04:38:02;1.24;;;1.18;;
14890;SDS011;7537;48.014;11.590;2022-09-09T04:43:31;1.78;;;1.44;;
14890;SDS011;7537;48.014;11.590;2022-09-09T04:48:58;5.32;;;1.43;;
14890;SDS011;7537;48.014;11.590;2022-09-09T04:54:31;3.72;;;1.44;;
14890;SDS011;7537;48.014;11.590;2022-09-09T04:59:59;0.92;;;1.01;;
14890;SDS011;7537;48.014;11.590;2022-09-09T05:05:27;1.61;;;1.58;;
14890;SDS011;7537;48.014;11.590;2022-09-09T05:10:54;1.33;;;1.16;;
14890;SDS011;7537;48.014;11.590;2022-09-09T05:16:22;1.82;;;1.28;;
14890;SDS011;7537;48.014;11.590;2022-09-09T05:21:51;4.74;;;1.81;;
14890;SDS011;7537;48.014;11.590;2022-09-09T05:27:20;1.13;;;1.27;;
14890;SDS011;7537;48.014;11.590;2022-09-09T05:32:48;1.48;;;1.30;;
14890;SDS011;7537;48.014;11.590;2022-09-09T05:38:15;0.89;;;0.94;;
14890;SDS011;7537;48.014;11.590;2022-09-09T05:43:43;0.84;;;0.92;;
14890;SDS011;7537;48.014;11.590;2022-09-09T05:49:10;1.07;;;1.09;;
14890;SDS011;7537;48.014;11.590;2022-09-09T05:54:42;1.46;;;1.38;;
14890;SDS011;7537;48.014;11.590;2022-09-09T06:00:11;1.59;;;0.91;;
14890;SDS011;7537;48.014;11.590;2022-09-09T06:05:39;1.57;;;1.72;;
14890;SDS011;7537;48.014;11.590;2022-09-09T06:11:07;2.26;;;0.97;;
14890;SDS011;7537;48.014;11.590;2022-09-09T06:16:35;2.00;;;0.79;;
14890;SDS011;7537;48.014;11.590;2022-09-09T06:22:03;2.53;;;0.96;;
14890;SDS011;7537;48.014;11.590;2022-09-09T06:27:32;1.37;;;1.29;;
14890;SDS011;7537;48.014;11.590;2022-09-09T06:33:03;1.82;;;1.24;;
14890;SDS011;7537;48.014;11.590;2022-09-09T06:38:30;0.97;;;0.84;;
14890;SDS011;7537;48.014;11.590;2022-09-09T06:43:58;4.67;;;1.33;;
14890;SDS011;7537;48.014;11.590;2022-09-09T06:49:25;1.01;;;1.13;;
14890;SDS011;7537;48.014;11.590;2022-09-09T06:54:56;0.96;;;0.97;;
14890;SDS011;7537;48.014;11.590;2022-09-09T07:00:25;1.49;;;1.11;;
14890;SDS011;7537;48.014;11.590;2022-09-09T07:05:55;1.06;;;1.15;;
14890;SDS011;7537;48.014;11.590;2022-09-09T07:11:24;1.01;;;1.14;;
14890;SDS011;7537;48.014;11.590;2022-09-09T07:16:52;0.84;;;0.74;;
14890;SDS011;7537;48.014;11.590;2022-09-09T07:22:20;1.12;;;0.73;;
14890;SDS011;7537;48.014;11.590;2022-09-09T07:27:47;0.83;;;0.90;;
14890;SDS011;7537;48.014;11.590;2022-09-09T07:33:16;2.19;;;0.87;;
14890;SDS011;7537;48.014;11.590;2022-09-09T07:38:44;1.37;;;1.04;;
14890;SDS011;7537;48.014;11.590;2022-09-09T07:44:12;2.93;;;1.19;;
14890;SDS011;7537;48.014;11.590;2022-09-09T07:49:40;0.06;;;0.12;;
14890;SDS011;7537;48.014;11.590;2022-09-09T07:55:11;0.00;;;0.00;;
14890;SDS011;7537;48.014;11.590;2022-09-09T08:00:38;1.22;;;1.06;;
14890;SDS011;7537;48.014;11.590;2022-09-09T08:06:08;0.88;;;0.77;;
14890;SDS011;7537;48.014;11.590;2022-09-09T08:11:35;0.77;;;0.85;;
14890;SDS011;7537;48.014;11.590;2022-09-09T08:17:03;0.00;;;0.05;;
14890;SDS011;7537;48.014;11.590;2022-09-09T08:22:30;0.14;;;0.17;;
14890;SDS011;7537;48.014;11.590;2022-09-09T08:27:58;0.00;;;0.01;;
14890;SDS011;7537;48.014;11.590;2022-09-09T08:33:26;0.39;;;0.36;;
14890;SDS011;7537;48.014;11.590;2022-09-09T08:38:57;1.09;;;0.42;;
14890;SDS011;7537;48.014;11.590;2022-09-09T08:44:27;1.23;;;1.20;;
14890;SDS011;7537;48.014;11.590;2022-09-09T08:50:05;0.00;;;0.06;;
14890;SDS011;7537;48.014;11.590;2022-09-09T08:55:44;0.00;;;0.00;;
14890;SDS011;7537;48.014;11.590;2022-09-09T09:01:17;0.87;;;0.79;;
14890;SDS011;7537;48.014;11.590;2022-09-09T09:06:49;0.00;;;0.04;;
14890;SDS011;7537;48.014;11.590;2022-09-09T09:12:20;0.79;;;0.60;;
14890;SDS011;7537;48.014;11.590;2022-09-09T09:17:49;0.00;;;0.05;;
14890;SDS011;7537;48.014;11.590;2022-09-09T09:23:19;0.10;;;0.12;;
14890;SDS011;7537;48.014;11.590;2022-09-09T09:28:48;0.00;;;0.01;;
14890;SDS011;7537;48.014;11.590;2022-09-09T09:34:15;0.00;;;0.00;;
14890;SDS011;7537;48.014;11.590;2022-09-09T09:39:42;0.00;;;0.00;;
14890;SDS011;7537;48.014;11.590;2022-09-09T09:45:15;0.34;;;0.38;;
14890;SDS011;7537;48.014;11.590;2022-09-09T09:50:47;0.00;;;0.02;;
14890;SDS011;7537;48.014;11.590;2022-09-09T09:56:27;0.20;;;0.10;;
14890;SDS011;7537;48.014;11.590;2022-09-09T10:02:05;0.00;;;0.02;;
14890;SDS011;7537;48.014;11.590;2022-09-09T10:07:33;0.00;;;0.00;;
14890;SDS011;7537;48.014;11.590;2022-09-09T10:13:01;0.06;;;0.07;;
14890;SDS011;7537;48.014;11.590;2022-09-09T10:18:45;0.00;;;0.01;;
14890;SDS011;7537;48.014;11.590;2022-09-09T10:30:11;0.00;;;0.04;;
14890;SDS011;7537;48.014;11.590;2022-09-09T10:35:44;0.78;;;0.28;;
14890;SDS011;7537;48.014;11.590;2022-09-09T10:41:16;0.00;;;0.03;;
14890;SDS011;7537;48.014;11.590;2022-09-09T10:46:49;0.05;;;0.06;;
14890;SDS011;7537;48.014;11.590;2022-09-09T10:52:21;0.14;;;0.16;;
14890;SDS011;7537;48.014;11.590;2022-09-09T10:58:09;0.13;;;0.15;;
14890;SDS011;7537;48.014;11.590;2022-09-09T11:03:38;0.97;;;0.74;;
14890;SDS011;7537;48.014;11.590;2022-09-09T11:09:08;0.04;;;0.06;;
14890;SDS011;7537;48.014;11.590;2022-09-09T11:14:41;0.04;;;0.06;;
14890;SDS011;7537;48.014;11.590;2022-09-09T11:20:12;0.44;;;0.10;;
14890;SDS011;7537;48.014;11.590;2022-09-09T11:25:43;0.00;;;0.01;;
14890;SDS011;7537;48.014;11.590;2022-09-09T11:31:19;0.00;;;0.00;;
14890;SDS011;7537;48.014;11.590;2022-09-09T11:36:52;0.00;;;0.00;;
14890;SDS011;7537;48.014;11.590;2022-09-09T11:42:23;1.66;;;0.18;;
14890;SDS011;7537;48.014;11.590;2022-09-09T11:47:52;0.00;;;0.02;;
14890;SDS011;7537;48.014;11.590;2022-09-09T11:53:21;0.00;;;0.00;;
14890;SDS011;7537;48.014;11.590;2022-09-09T11:58:57;0.05;;;0.06;;
14890;SDS011;7537;48.014;11.590;2022-09-09T12:04:27;0.09;;;0.11;;
14890;SDS011;7537;48.014;11.590;2022-09-09T12:09:56;0.00;;;0.01;;
14890;SDS011;7537;48.014;11.590;2022-09-09T12:15:27;0.00;;;0.00;;
14890;SDS011;7537;48.014;11.590;2022-09-09T12:20:57;0.00;;;0.00;;
14890;SDS011;7537;48.014;11.590;2022-09-09T12:26:29;0.00;;;0.00;;
14890;SDS011;7537;48.014;11.590;2022-09-09T12:32:01;0.00;;;0.00;;
14890;SDS011;7537;48.014;11.590;2022-09-09T12:37:32;0.04;;;0.05;;
14890;SDS011;7537;48.014;11.590;2022-09-09T12:43:01;0.00;;;0.00;;
14890;SDS011;7537;48.014;11.590;2022-09-09T12:48:32;0.00;;;0.00;;
14890;SDS011;7537;48.014;11.590;2022-09-09T12:54:00;0.06;;;0.07;;
14890;SDS011;7537;48.014;11.590;2022-09-09T12:59:41;0.00;;;0.01;;
14890;SDS011;7537;48.014;11.590;2022-09-09T13:05:14;0.17;;;0.20;;
14890;SDS011;7537;48.014;11.590;2022-09-09T13:10:43;0.06;;;0.08;;
14890;SDS011;7537;48.014;11.590;2022-09-09T13:16:20;0.00;;;0.01;;
14890;SDS011;7537;48.014;11.590;2022-09-09T13:21:48;0.02;;;0.03;;
14890;SDS011;7537;48.014;11.590;2022-09-09T13:27:23;0.00;;;0.01;;
14890;SDS011;7537;48.014;11.590;2022-09-09T13:33:05;0.00;;;0.00;;
14890;SDS011;7537;48.014;11.590;2022-09-09T13:38:35;0.07;;;0.09;;
14890;SDS011;7537;48.014;11.590;2022-09-09T13:44:03;0.03;;;0.05;;
14890;SDS011;7537;48.014;11.590;2022-09-09T13:49:31;0.01;;;0.01;;
14890;SDS011;7537;48.014;11.590;2022-09-09T13:54:59;0.00;;;0.01;;
14890;SDS011;7537;48.014;11.590;2022-09-09T14:00:30;0.00;;;0.00;;
14890;SDS011;7537;48.014;11.590;2022-09-09T14:05:58;0.01;;;0.02;;
14890;SDS011;7537;48.014;11.590;2022-09-09T14:11:28;0.00;;;0.01;;
14890;SDS011;7537;48.014;11.590;2022-09-09T14:16:55;0.19;;;0.21;;
14890;SDS011;7537;48.014;11.590;2022-09-09T14:22:23;0.00;;;0.01;;
14890;SDS011;7537;48.014;11.590;2022-09-09T14:27:50;3.09;;;0.16;;
14890;SDS011;7537;48.014;11.590;2022-09-09T14:33:18;0.12;;;0.14;;
14890;SDS011;7537;48.014;11.590;2022-09-09T14:38:45;0.00;;;0.01;;
14890;SDS011;7537;48.014;11.590;2022-09-09T14:44:14;1.56;;;0.34;;
14890;SDS011;7537;48.014;11.590;2022-09-09T14:49:42;0.11;;;0.14;;
14890;SDS011;7537;48.014;11.590;2022-09-09T14:55:10;0.00;;;0.01;;
14890;SDS011;7537;48.014;11.590;2022-09-09T15:00:40;0.00;;;0.00;;
14890;SDS011;7537;48.014;11.590;2022-09-09T15:06:09;0.04;;;0.04;;
14890;SDS011;7537;48.014;11.590;2022-09-09T15:11:38;0.00;;;0.00;;
14890;SDS011;7537;48.014;11.590;2022-09-09T15:17:07;0.00;;;0.00;;
14890;SDS011;7537;48.014;11.590;2022-09-09T15:22:34;0.17;;;0.11;;
14890;SDS011;7537;48.014;11.590;2022-09-09T15:28:02;0.00;;;0.01;;
14890;SDS011;7537;48.014;11.590;2022-09-09T15:33:29;0.01;;;0.02;;
14890;SDS011;7537;48.014;11.590;2022-09-09T15:38:57;0.23;;;0.30;;
14890;SDS011;7537;48.014;11.590;2022-09-09T15:44:40;0.46;;;0.50;;
14890;SDS011;7537;48.014;11.590;2022-09-09T15:50:10;0.00;;;0.03;;
14890;SDS011;7537;48.014;11.590;2022-09-09T15:55:37;0.00;;;0.00;;
14890;SDS011;7537;48.014;11.590;2022-09-09T16:01:09;0.04;;;0.05;;
14890;SDS011;7537;48.014;11.590;2022-09-09T16:06:37;0.00;;;0.01;;
14890;SDS011;7537;48.014;11.590;2022-09-09T16:12:05;0.00;;;0.00;;
14890;SDS011;7537;48.014;11.590;2022-09-09T16:17:32;0.00;;;0.00;;
14890;SDS011;7537;48.014;11.590;2022-09-09T16:23:01;0.00;;;0.00;;
14890;SDS011;7537;48.014;11.590;2022-09-09T16:28:29;0.01;;;0.01;;
14890;SDS011;7537;48.014;11.590;2022-09-09T16:33:56;0.12;;;0.15;;
14890;SDS011;7537;48.014;11.590;2022-09-09T16:39:24;0.00;;;0.02;;
14890;SDS011;7537;48.014;11.590;2022-09-09T16:44:51;0.00;;;0.00;;
14890;SDS011;7537;48.014;11.590;2022-09-09T16:50:20;1.04;;;0.52;;
14890;SDS011;7537;48.014;11.590;2022-09-09T16:55:47;0.00;;;0.03;;
14890;SDS011;7537;48.014;11.590;2022-09-09T17:01:19;0.00;;;0.01;;
14890;SDS011;7537;48.014;11.590;2022-09-09T17:06:47;0.00;;;0.00;;
14890;SDS011;7537;48.014;11.590;2022-09-09T17:12:15;0.01;;;0.01;;
14890;SDS011;7537;48.014;11.590;2022-09-09T17:17:42;0.00;;;0.00;;
14890;SDS011;7537;48.014;11.590;2022-09-09T17:23:10;0.00;;;0.00;;
14890;SDS011;7537;48.014;11.590;2022-09-09T17:28:39;0.00;;;0.00;;
14890;SDS011;7537;48.014;11.590;2022-09-09T17:34:08;0.00;;;0.00;;
14890;SDS011;7537;48.014;11.590;2022-09-09T17:39:36;1.44;;;1.46;;
14890;SDS011;7537;48.014;11.590;2022-09-09T17:45:05;0.00;;;0.04;;
14890;SDS011;7537;48.014;11.590;2022-09-09T17:50:32;0.00;;;0.00;;
14890;SDS011;7537;48.014;11.590;2022-09-09T17:56:04;0.00;;;0.00;;
14890;SDS011;7537;48.014;11.590;2022-09-09T18:01:36;0.00;;;0.00;;
14890;SDS011;7537;48.014;11.590;2022-09-09T18:07:04;0.00;;;0.00;;
14890;SDS011;7537;48.014;11.590;2022-09-09T18:12:33;0.00;;;0.00;;
14890;SDS011;7537;48.014;11.590;2022-09-09T18:18:02;0.00;;;0.00;;
14890;SDS011;7537;48.014;11.590;2022-09-09T18:23:31;0.00;;;0.00;;
14890;SDS011;7537;48.014;11.590;2022-09-09T18:29:02;0.00;;;0.00;;
14890;SDS011;7537;48.014;11.590;2022-09-09T18:34:33;0.00;;;0.00;;
14890;SDS011;7537;48.014;11.590;2022-09-09T18:40:01;0.07;;;0.08;;
14890;SDS011;7537;48.014;11.590;2022-09-09T18:45:28;0.00;;;0.01;;
14890;SDS011;7537;48.014;11.590;2022-09-09T18:51:01;0.00;;;0.00;;
14890;SDS011;7537;48.014;11.590;2022-09-09T18:56:29;0.00;;;0.00;;
14890;SDS011;7537;48.014;11.590;2022-09-09T19:02:00;0.00;;;0.00;;
14890;SDS011;7537;48.014;11.590;2022-09-09T19:07:29;0.00;;;0.00;;
14890;SDS011;7537;48.014;11.590;2022-09-09T19:12:56;0.00;;;0.00;;
14890;SDS011;7537;48.014;11.590;2022-09-09T19:18:23;0.00;;;0.00;;
14890;SDS011;7537;48.014;11.590;2022-09-09T19:23:54;0.00;;;0.00;;
14890;SDS011;7537;48.014;11.590;2022-09-09T19:29:22;2.84;;;1.72;;
14890;SDS011;7537;48.014;11.590;2022-09-09T19:34:50;0.00;;;0.13;;
14890;SDS011;7537;48.014;11.590;2022-09-09T19:40:19;0.00;;;0.00;;
14890;SDS011;7537;48.014;11.590;2022-09-09T19:45:56;0.00;;;0.00;;
14890;SDS011;7537;48.014;11.590;2022-09-09T19:51:24;0.00;;;0.00;;
14890;SDS011;7537;48.014;11.590;2022-09-09T19:56:52;0.08;;;0.03;;
14890;SDS011;7537;48.014;11.590;2022-09-09T20:02:23;0.00;;;0.01;;
14890;SDS011;7537;48.014;11.590;2022-09-09T20:07:50;0.00;;;0.00;;
14890;SDS011;7537;48.014;11.590;2022-09-09T20:13:19;0.00;;;0.01;;
14890;SDS011;7537;48.014;11.590;2022-09-09T20:18:48;0.00;;;0.01;;
14890;SDS011;7537;48.014;11.590;2022-09-09T20:24:16;0.00;;;0.00;;
14890;SDS011;7537;48.014;11.590;2022-09-09T20:29:46;0.00;;;0.00;;
14890;SDS011;7537;48.014;11.590;2022-09-09T20:35:17;0.00;;;0.00;;
14890;SDS011;7537;48.014;11.590;2022-09-09T20:40:45;0.46;;;0.51;;
14890;SDS011;7537;48.014;11.590;2022-09-09T20:46:14;0.06;;;0.09;;
14890;SDS011;7537;48.014;11.590;2022-09-09T20:51:42;0.00;;;0.00;;
14890;SDS011;7537;48.014;11.590;2022-09-09T20:57:09;0.00;;;0.00;;
14890;SDS011;7537;48.014;11.590;2022-09-09T21:02:40;0.01;;;0.03;;
14890;SDS011;7537;48.014;11.590;2022-09-09T21:08:07;0.00;;;0.00;;
14890;SDS011;7537;48.014;11.590;2022-09-09T21:13:37;0.04;;;0.05;;
14890;SDS011;7537;48.014;11.590;2022-09-09T21:19:06;0.03;;;0.04;;
14890;SDS011;7537;48.014;11.590;2022-09-09T21:24:34;0.05;;;0.07;;
14890;SDS011;7537;48.014;11.590;2022-09-09T21:30:01;0.35;;;0.21;;
14890;SDS011;7537;48.014;11.590;2022-09-09T21:35:33;0.38;;;0.41;;
14890;SDS011;7537;48.014;11.590;2022-09-09T21:41:02;0.20;;;0.24;;
14890;SDS011;7537;48.014;11.590;2022-09-09T21:46:29;0.20;;;0.23;;
14890;SDS011;7537;48.014;11.590;2022-09-09T21:51:58;0.73;;;0.29;;
14890;SDS011;7537;48.014;11.590;2022-09-09T21:57:25;0.05;;;0.06;;
14890;SDS011;7537;48.014;11.590;2022-09-09T22:02:56;1.16;;;0.85;;
14890;SDS011;7537;48.014;11.590;2022-09-09T22:08:25;0.00;;;0.04;;
14890;SDS011;7537;48.014;11.590;2022-09-09T22:13:52;0.00;;;0.00;;
14890;SDS011;7537;48.014;11.590;2022-09-09T22:19:19;0.00;;;0.00;;
14890;SDS011;7537;48.014;11.590;2022-09-09T22:24:48;0.00;;;0.00;;
14890;SDS011;7537;48.014;11.590;2022-09-09T22:30:15;0.00;;;0.00;;
14890;SDS011;7537;48.014;11.590;2022-09-09T22:35:43;0.36;;;0.41;;
14890;SDS011;7537;48.014;11.590;2022-09-09T22:41:10;0.00;;;0.01;;
14890;SDS011;7537;48.014;11.590;2022-09-09T22:46:38;0.00;;;0.00;;
14890;SDS011;7537;48.014;11.590;2022-09-09T22:52:05;0.08;;;0.09;;
14890;SDS011;7537;48.014;11.590;2022-09-09T22:57:34;0.82;;;0.12;;
14890;SDS011;7537;48.014;11.590;2022-09-09T23:03:04;0.00;;;0.01;;
14890;SDS011;7537;48.014;11.590;2022-09-09T23:08:32;0.10;;;0.12;;
14890;SDS011;7537;48.014;11.590;2022-09-09T23:14:00;0.08;;;0.11;;
14890;SDS011;7537;48.014;11.590;2022-09-09T23:19:29;0.00;;;0.00;;
14890;SDS011;7537;48.014;11.590;2022-09-09T23:24:57;0.00;;;0.00;;
14890;SDS011;7537;48.014;11.590;2022-09-09T23:30:26;0.00;;;0.00;;
14890;SDS011;7537;48.014;11.590;2022-09-09T23:35:59;0.00;;;0.00;;
14890;SDS011;7537;48.014;11.590;2022-09-09T23:41:27;0.00;;;0.00;;
14890;SDS011;7537;48.014;11.590;2022-09-09T23:46:54;0.00;;;0.00;;
14890;SDS011;7537;48.014;11.590;2022-09-09T23:52:21;0.04;;;0.05;;
14890;SDS011;7537;48.014;11.590;2022-09-09T23:57:49;0.00;;;0.00;;
